sensor_id;sensor_type;location;lat;lon;timestamp;temperature;humidity
47148;DHT22;32900;47.498;8.738;2022-07-30T00:01:15;19.30;99.90
47148;DHT22;32900;47.498;8.738;2022-07-30T00:03:42;19.40;99.90
47148;DHT22;32900;47.498;8.738;2022-07-30T00:06:09;19.40;99.90
47148;DHT22;32900;47.498;8.738;2022-07-30T00:08:36;19.20;99.90
47148;DHT22;32900;47.498;8.738;2022-07-30T00:11:02;19.20;99.90
47148;DHT22;32900;47.498;8.738;2022-07-30T00:13:29;19.20;99.90
47148;DHT22;32900;47.498;8.738;2022-07-30T00:15:56;19.40;99.90
47148;DHT22;32900;47.498;8.738;2022-07-30T00:18:23;19.40;99.90
47148;DHT22;32900;47.498;8.738;2022-07-30T00:20:50;19.20;99.90
47148;DHT22;32900;47.498;8.738;2022-07-30T00:23:17;19.10;99.90
47148;DHT22;32900;47.498;8.738;2022-07-30T00:25:44;19.00;99.90
47148;DHT22;32900;47.498;8.738;2022-07-30T00:28:11;19.10;99.90
47148;DHT22;32900;47.498;8.738;2022-07-30T00:30:38;19.10;99.90
47148;DHT22;32900;47.498;8.738;2022-07-30T00:33:06;19.10;99.90
47148;DHT22;32900;47.498;8.738;2022-07-30T00:35:34;19.00;99.90
47148;DHT22;32900;47.498;8.738;2022-07-30T00:38:00;19.10;99.90
47148;DHT22;32900;47.498;8.738;2022-07-30T00:40:27;19.30;99.90
47148;DHT22;32900;47.498;8.738;2022-07-30T00:42:54;19.30;99.90
47148;DHT22;32900;47.498;8.738;2022-07-30T00:45:21;19.20;99.90
47148;DHT22;32900;47.498;8.738;2022-07-30T00:47:48;19.10;99.90
47148;DHT22;32900;47.498;8.738;2022-07-30T00:50:15;19.40;99.90
47148;DHT22;32900;47.498;8.738;2022-07-30T00:52:43;19.20;99.90
47148;DHT22;32900;47.498;8.738;2022-07-30T00:55:12;19.10;99.90
47148;DHT22;32900;47.498;8.738;2022-07-30T00:57:40;19.30;99.90
47148;DHT22;32900;47.498;8.738;2022-07-30T01:00:11;19.30;99.90
47148;DHT22;32900;47.498;8.738;2022-07-30T01:02:38;19.30;99.90
47148;DHT22;32900;47.498;8.738;2022-07-30T01:05:06;19.20;99.90
47148;DHT22;32900;47.498;8.738;2022-07-30T01:07:33;19.50;99.90
47148;DHT22;32900;47.498;8.738;2022-07-30T01:10:00;19.20;99.90
47148;DHT22;32900;47.498;8.738;2022-07-30T01:12:27;19.20;99.90
47148;DHT22;32900;47.498;8.738;2022-07-30T01:14:58;19.50;99.90
47148;DHT22;32900;47.498;8.738;2022-07-30T01:17:26;19.60;99.90
47148;DHT22;32900;47.498;8.738;2022-07-30T01:19:58;19.40;99.90
47148;DHT22;32900;47.498;8.738;2022-07-30T01:27:42;19.00;99.90
47148;DHT22;32900;47.498;8.738;2022-07-30T01:30:10;19.20;99.90
47148;DHT22;32900;47.498;8.738;2022-07-30T01:32:40;19.20;99.90
47148;DHT22;32900;47.498;8.738;2022-07-30T01:35:09;18.90;99.90
47148;DHT22;32900;47.498;8.738;2022-07-30T01:37:37;19.20;99.90
47148;DHT22;32900;47.498;8.738;2022-07-30T01:40:05;18.90;99.90
47148;DHT22;32900;47.498;8.738;2022-07-30T01:42:32;18.70;99.90
47148;DHT22;32900;47.498;8.738;2022-07-30T01:45:01;18.60;99.90
47148;DHT22;32900;47.498;8.738;2022-07-30T01:47:29;18.70;99.90
47148;DHT22;32900;47.498;8.738;2022-07-30T01:49:59;18.90;99.90
47148;DHT22;32900;47.498;8.738;2022-07-30T01:52:27;18.90;99.90
47148;DHT22;32900;47.498;8.738;2022-07-30T01:54:57;18.80;99.90
47148;DHT22;32900;47.498;8.738;2022-07-30T01:57:25;18.90;99.90
47148;DHT22;32900;47.498;8.738;2022-07-30T01:59:58;18.70;99.90
47148;DHT22;32900;47.498;8.738;2022-07-30T02:02:26;18.90;99.90
47148;DHT22;32900;47.498;8.738;2022-07-30T02:04:53;18.60;99.90
47148;DHT22;32900;47.498;8.738;2022-07-30T02:07:30;18.90;99.90
47148;DHT22;32900;47.498;8.738;2022-07-30T02:10:06;18.80;99.90
47148;DHT22;32900;47.498;8.738;2022-07-30T02:12:33;19.10;99.90
47148;DHT22;32900;47.498;8.738;2022-07-30T02:18:09;18.80;99.90
47148;DHT22;32900;47.498;8.738;2022-07-30T02:20:50;18.90;99.90
47148;DHT22;32900;47.498;8.738;2022-07-30T02:58:20;18.50;99.90
47148;DHT22;32900;47.498;8.738;2022-07-30T03:00:49;18.50;99.90
47148;DHT22;32900;47.498;8.738;2022-07-30T03:03:17;18.30;99.90
47148;DHT22;32900;47.498;8.738;2022-07-30T03:05:45;18.50;99.90
47148;DHT22;32900;47.498;8.738;2022-07-30T03:08:15;18.10;99.90
47148;DHT22;32900;47.498;8.738;2022-07-30T03:10:47;18.30;99.90
47148;DHT22;32900;47.498;8.738;2022-07-30T03:13:14;18.10;99.90
47148;DHT22;32900;47.498;8.738;2022-07-30T03:15:45;18.20;99.90
47148;DHT22;32900;47.498;8.738;2022-07-30T03:18:16;17.80;99.90
47148;DHT22;32900;47.498;8.738;2022-07-30T03:20:48;17.80;99.90
47148;DHT22;32900;47.498;8.738;2022-07-30T03:23:17;18.10;99.90
47148;DHT22;32900;47.498;8.738;2022-07-30T03:25:52;18.10;99.90
47148;DHT22;32900;47.498;8.738;2022-07-30T03:28:22;18.10;99.90
47148;DHT22;32900;47.498;8.738;2022-07-30T03:30:50;17.80;99.90
47148;DHT22;32900;47.498;8.738;2022-07-30T03:33:18;18.20;99.90
47148;DHT22;32900;47.498;8.738;2022-07-30T03:35:46;17.80;99.90
47148;DHT22;32900;47.498;8.738;2022-07-30T03:38:15;17.80;99.90
47148;DHT22;32900;47.498;8.738;2022-07-30T03:40:43;17.70;99.90
47148;DHT22;32900;47.498;8.738;2022-07-30T03:43:12;18.00;99.90
47148;DHT22;32900;47.498;8.738;2022-07-30T03:46:01;17.70;99.90
47148;DHT22;32900;47.498;8.738;2022-07-30T03:48:29;17.50;99.90
47148;DHT22;32900;47.498;8.738;2022-07-30T03:50:57;17.40;99.90
47148;DHT22;32900;47.498;8.738;2022-07-30T03:53:25;17.40;99.90
47148;DHT22;32900;47.498;8.738;2022-07-30T03:55:53;17.30;99.90
47148;DHT22;32900;47.498;8.738;2022-07-30T03:58:20;17.40;99.90
47148;DHT22;32900;47.498;8.738;2022-07-30T04:00:48;17.30;99.90
47148;DHT22;32900;47.498;8.738;2022-07-30T04:03:25;17.20;99.90
47148;DHT22;32900;47.498;8.738;2022-07-30T04:05:53;17.70;99.90
47148;DHT22;32900;47.498;8.738;2022-07-30T04:08:20;17.80;99.90
47148;DHT22;32900;47.498;8.738;2022-07-30T04:10:47;18.00;99.90
47148;DHT22;32900;47.498;8.738;2022-07-30T04:13:14;18.20;99.90
47148;DHT22;32900;47.498;8.738;2022-07-30T04:18:50;18.00;99.90
47148;DHT22;32900;47.498;8.738;2022-07-30T04:21:19;17.80;99.90
47148;DHT22;32900;47.498;8.738;2022-07-30T04:23:49;18.30;99.90
47148;DHT22;32900;47.498;8.738;2022-07-30T04:26:33;18.30;99.90
47148;DHT22;32900;47.498;8.738;2022-07-30T04:29:01;18.30;99.90
47148;DHT22;32900;47.498;8.738;2022-07-30T04:31:28;18.20;99.90
47148;DHT22;32900;47.498;8.738;2022-07-30T04:34:06;18.30;99.90
47148;DHT22;32900;47.498;8.738;2022-07-30T04:36:33;18.10;99.90
47148;DHT22;32900;47.498;8.738;2022-07-30T04:39:01;18.00;99.90
47148;DHT22;32900;47.498;8.738;2022-07-30T04:41:28;18.20;99.90
47148;DHT22;32900;47.498;8.738;2022-07-30T04:44:14;17.80;99.90
47148;DHT22;32900;47.498;8.738;2022-07-30T04:46:41;18.10;99.90
47148;DHT22;32900;47.498;8.738;2022-07-30T04:49:09;18.00;99.90
47148;DHT22;32900;47.498;8.738;2022-07-30T04:51:37;18.10;99.90
47148;DHT22;32900;47.498;8.738;2022-07-30T04:54:07;18.00;99.90
47148;DHT22;32900;47.498;8.738;2022-07-30T04:56:44;17.80;99.90
47148;DHT22;32900;47.498;8.738;2022-07-30T04:59:22;17.60;99.90
47148;DHT22;32900;47.498;8.738;2022-07-30T05:01:50;17.70;99.90
47148;DHT22;32900;47.498;8.738;2022-07-30T05:04:20;17.50;99.90
47148;DHT22;32900;47.498;8.738;2022-07-30T05:06:48;17.30;99.90
47148;DHT22;32900;47.498;8.738;2022-07-30T05:09:16;17.20;99.90
47148;DHT22;32900;47.498;8.738;2022-07-30T05:11:49;17.50;99.90
47148;DHT22;32900;47.498;8.738;2022-07-30T05:14:16;17.90;99.90
47148;DHT22;32900;47.498;8.738;2022-07-30T05:16:43;17.80;99.90
47148;DHT22;32900;47.498;8.738;2022-07-30T05:19:10;17.90;99.90
47148;DHT22;32900;47.498;8.738;2022-07-30T05:21:37;18.40;99.90
47148;DHT22;32900;47.498;8.738;2022-07-30T05:24:04;18.50;99.90
47148;DHT22;32900;47.498;8.738;2022-07-30T05:26:31;18.20;99.90
47148;DHT22;32900;47.498;8.738;2022-07-30T05:28:58;18.00;99.90
47148;DHT22;32900;47.498;8.738;2022-07-30T05:31:25;18.30;99.90
47148;DHT22;32900;47.498;8.738;2022-07-30T05:33:54;18.50;99.90
47148;DHT22;32900;47.498;8.738;2022-07-30T05:36:26;18.60;99.90
47148;DHT22;32900;47.498;8.738;2022-07-30T05:38:53;18.80;99.90
47148;DHT22;32900;47.498;8.738;2022-07-30T05:41:20;18.80;99.90
47148;DHT22;32900;47.498;8.738;2022-07-30T05:43:59;18.80;99.90
47148;DHT22;32900;47.498;8.738;2022-07-30T05:46:26;19.20;99.90
47148;DHT22;32900;47.498;8.738;2022-07-30T05:48:53;19.40;99.90
47148;DHT22;32900;47.498;8.738;2022-07-30T05:51:20;19.50;99.90
47148;DHT22;32900;47.498;8.738;2022-07-30T05:53:47;19.60;99.90
47148;DHT22;32900;47.498;8.738;2022-07-30T05:56:14;19.50;99.90
47148;DHT22;32900;47.498;8.738;2022-07-30T05:58:41;19.30;99.90
47148;DHT22;32900;47.498;8.738;2022-07-30T06:01:08;19.40;99.90
47148;DHT22;32900;47.498;8.738;2022-07-30T06:03:35;19.50;99.90
47148;DHT22;32900;47.498;8.738;2022-07-30T06:06:03;19.50;99.90
47148;DHT22;32900;47.498;8.738;2022-07-30T06:08:30;19.70;99.90
47148;DHT22;32900;47.498;8.738;2022-07-30T06:10:57;19.90;99.90
47148;DHT22;32900;47.498;8.738;2022-07-30T06:13:24;19.70;99.90
47148;DHT22;32900;47.498;8.738;2022-07-30T06:15:51;19.80;99.90
47148;DHT22;32900;47.498;8.738;2022-07-30T06:18:18;20.00;99.90
47148;DHT22;32900;47.498;8.738;2022-07-30T06:20:49;20.10;99.90
47148;DHT22;32900;47.498;8.738;2022-07-30T06:23:17;20.10;99.90
47148;DHT22;32900;47.498;8.738;2022-07-30T06:25:43;20.10;99.90
47148;DHT22;32900;47.498;8.738;2022-07-30T06:28:10;20.00;99.90
47148;DHT22;32900;47.498;8.738;2022-07-30T06:30:57;19.90;99.90
47148;DHT22;32900;47.498;8.738;2022-07-30T06:33:24;20.10;99.90
47148;DHT22;32900;47.498;8.738;2022-07-30T06:35:51;19.70;99.90
47148;DHT22;32900;47.498;8.738;2022-07-30T06:38:17;20.20;99.90
47148;DHT22;32900;47.498;8.738;2022-07-30T06:40:44;20.10;99.90
47148;DHT22;32900;47.498;8.738;2022-07-30T06:43:11;20.10;99.90
47148;DHT22;32900;47.498;8.738;2022-07-30T06:45:37;20.00;99.90
47148;DHT22;32900;47.498;8.738;2022-07-30T06:48:05;19.80;99.90
47148;DHT22;32900;47.498;8.738;2022-07-30T06:50:32;19.80;99.90
47148;DHT22;32900;47.498;8.738;2022-07-30T06:52:58;19.80;99.90
47148;DHT22;32900;47.498;8.738;2022-07-30T06:55:25;20.00;99.90
47148;DHT22;32900;47.498;8.738;2022-07-30T06:57:52;20.00;99.90
47148;DHT22;32900;47.498;8.738;2022-07-30T07:00:19;20.00;99.90
47148;DHT22;32900;47.498;8.738;2022-07-30T07:02:46;19.90;99.90
47148;DHT22;32900;47.498;8.738;2022-07-30T07:05:13;19.80;99.90
47148;DHT22;32900;47.498;8.738;2022-07-30T07:07:40;19.70;99.90
47148;DHT22;32900;47.498;8.738;2022-07-30T07:10:14;19.70;99.90
47148;DHT22;32900;47.498;8.738;2022-07-30T07:12:41;19.90;99.90
47148;DHT22;32900;47.498;8.738;2022-07-30T07:15:08;20.40;99.90
47148;DHT22;32900;47.498;8.738;2022-07-30T08:22:16;21.10;99.90
47148;DHT22;32900;47.498;8.738;2022-07-30T08:24:43;21.40;99.90
47148;DHT22;32900;47.498;8.738;2022-07-30T08:27:11;21.30;99.90
47148;DHT22;32900;47.498;8.738;2022-07-30T08:29:38;21.10;99.90
47148;DHT22;32900;47.498;8.738;2022-07-30T08:32:05;21.10;99.90
47148;DHT22;32900;47.498;8.738;2022-07-30T08:34:32;21.70;99.90
47148;DHT22;32900;47.498;8.738;2022-07-30T08:36:59;21.90;99.90
47148;DHT22;32900;47.498;8.738;2022-07-30T08:39:26;21.40;99.90
47148;DHT22;32900;47.498;8.738;2022-07-30T08:41:53;21.60;99.90
47148;DHT22;32900;47.498;8.738;2022-07-30T08:44:20;21.40;99.90
47148;DHT22;32900;47.498;8.738;2022-07-30T08:46:50;22.00;99.90
47148;DHT22;32900;47.498;8.738;2022-07-30T08:49:18;22.20;99.90
47148;DHT22;32900;47.498;8.738;2022-07-30T08:51:46;22.30;99.90
47148;DHT22;32900;47.498;8.738;2022-07-30T08:54:13;22.10;99.90
47148;DHT22;32900;47.498;8.738;2022-07-30T08:56:40;21.80;99.90
47148;DHT22;32900;47.498;8.738;2022-07-30T08:59:07;21.70;99.90
47148;DHT22;32900;47.498;8.738;2022-07-30T09:01:34;21.90;99.90
47148;DHT22;32900;47.498;8.738;2022-07-30T09:04:01;22.00;99.90
47148;DHT22;32900;47.498;8.738;2022-07-30T09:06:28;22.00;99.90
47148;DHT22;32900;47.498;8.738;2022-07-30T09:08:55;21.80;99.90
47148;DHT22;32900;47.498;8.738;2022-07-30T09:11:22;22.20;99.90
47148;DHT22;32900;47.498;8.738;2022-07-30T09:13:48;22.40;99.90
47148;DHT22;32900;47.498;8.738;2022-07-30T09:16:24;22.50;99.90
47148;DHT22;32900;47.498;8.738;2022-07-30T09:18:52;22.60;99.90
47148;DHT22;32900;47.498;8.738;2022-07-30T09:21:26;22.30;99.90
47148;DHT22;32900;47.498;8.738;2022-07-30T09:24:10;22.50;99.90
47148;DHT22;32900;47.498;8.738;2022-07-30T09:26:57;22.70;99.90
47148;DHT22;32900;47.498;8.738;2022-07-30T09:29:26;22.40;99.90
47148;DHT22;32900;47.498;8.738;2022-07-30T09:31:57;22.50;99.90
47148;DHT22;32900;47.498;8.738;2022-07-30T09:34:30;22.60;99.90
47148;DHT22;32900;47.498;8.738;2022-07-30T09:37:01;22.90;99.90
47148;DHT22;32900;47.498;8.738;2022-07-30T09:39:38;22.70;99.90
47148;DHT22;32900;47.498;8.738;2022-07-30T09:42:24;23.00;99.90
47148;DHT22;32900;47.498;8.738;2022-07-30T09:44:52;23.10;99.90
47148;DHT22;32900;47.498;8.738;2022-07-30T09:47:31;22.90;99.90
47148;DHT22;32900;47.498;8.738;2022-07-30T09:50:03;23.00;99.90
47148;DHT22;32900;47.498;8.738;2022-07-30T09:52:34;22.80;99.90
47148;DHT22;32900;47.498;8.738;2022-07-30T09:55:01;22.90;99.90
47148;DHT22;32900;47.498;8.738;2022-07-30T09:57:30;23.10;99.90
47148;DHT22;32900;47.498;8.738;2022-07-30T09:59:58;23.00;99.90
47148;DHT22;32900;47.498;8.738;2022-07-30T10:02:41;23.20;99.90
47148;DHT22;32900;47.498;8.738;2022-07-30T10:05:12;23.30;99.90
47148;DHT22;32900;47.498;8.738;2022-07-30T10:10:18;23.50;99.90
47148;DHT22;32900;47.498;8.738;2022-07-30T10:12:47;23.80;99.90
47148;DHT22;32900;47.498;8.738;2022-07-30T10:15:19;23.70;99.90
47148;DHT22;32900;47.498;8.738;2022-07-30T10:17:47;23.80;99.90
47148;DHT22;32900;47.498;8.738;2022-07-30T10:20:15;23.90;99.90
47148;DHT22;32900;47.498;8.738;2022-07-30T10:22:42;23.90;99.90
47148;DHT22;32900;47.498;8.738;2022-07-30T10:25:17;23.70;99.90
47148;DHT22;32900;47.498;8.738;2022-07-30T10:27:47;23.60;99.90
47148;DHT22;32900;47.498;8.738;2022-07-30T10:30:15;23.50;99.90
47148;DHT22;32900;47.498;8.738;2022-07-30T10:32:43;23.70;99.90
47148;DHT22;32900;47.498;8.738;2022-07-30T10:35:11;23.70;99.90
47148;DHT22;32900;47.498;8.738;2022-07-30T10:37:58;24.00;99.90
47148;DHT22;32900;47.498;8.738;2022-07-30T10:40:33;24.20;99.90
47148;DHT22;32900;47.498;8.738;2022-07-30T10:43:39;24.30;99.90
47148;DHT22;32900;47.498;8.738;2022-07-30T10:48:48;24.50;99.90
47148;DHT22;32900;47.498;8.738;2022-07-30T10:51:16;24.10;99.90
47148;DHT22;32900;47.498;8.738;2022-07-30T10:54:00;23.80;99.90
47148;DHT22;32900;47.498;8.738;2022-07-30T10:56:26;23.80;99.90
47148;DHT22;32900;47.498;8.738;2022-07-30T10:59:08;23.90;99.90
47148;DHT22;32900;47.498;8.738;2022-07-30T11:04:25;24.50;99.90
47148;DHT22;32900;47.498;8.738;2022-07-30T11:09:50;24.60;99.90
47148;DHT22;32900;47.498;8.738;2022-07-30T11:15:11;23.90;99.90
47148;DHT22;32900;47.498;8.738;2022-07-30T11:18:07;23.80;99.90
47148;DHT22;32900;47.498;8.738;2022-07-30T11:20:38;23.70;99.90
47148;DHT22;32900;47.498;8.738;2022-07-30T11:25:46;24.10;99.90
47148;DHT22;32900;47.498;8.738;2022-07-30T11:31:00;25.00;99.90
47148;DHT22;32900;47.498;8.738;2022-07-30T11:33:35;24.60;99.90
47148;DHT22;32900;47.498;8.738;2022-07-30T11:36:08;24.20;99.90
47148;DHT22;32900;47.498;8.738;2022-07-30T11:38:57;24.10;99.90
47148;DHT22;32900;47.498;8.738;2022-07-30T11:41:32;24.10;99.90
47148;DHT22;32900;47.498;8.738;2022-07-30T11:44:25;24.10;99.90
47148;DHT22;32900;47.498;8.738;2022-07-30T11:46:52;24.10;99.50
47148;DHT22;32900;47.498;8.738;2022-07-30T11:49:19;24.10;99.10
47148;DHT22;32900;47.498;8.738;2022-07-30T11:51:47;24.10;99.30
47148;DHT22;32900;47.498;8.738;2022-07-30T11:54:15;24.40;99.00
47148;DHT22;32900;47.498;8.738;2022-07-30T11:56:50;25.70;99.50
47148;DHT22;32900;47.498;8.738;2022-07-30T11:59:17;26.20;97.80
47148;DHT22;32900;47.498;8.738;2022-07-30T12:01:52;26.40;96.90
47148;DHT22;32900;47.498;8.738;2022-07-30T12:04:22;26.00;96.50
47148;DHT22;32900;47.498;8.738;2022-07-30T12:06:50;25.20;96.60
47148;DHT22;32900;47.498;8.738;2022-07-30T12:09:24;24.70;98.30
47148;DHT22;32900;47.498;8.738;2022-07-30T12:11:55;24.50;98.70
47148;DHT22;32900;47.498;8.738;2022-07-30T12:14:22;24.40;98.20
47148;DHT22;32900;47.498;8.738;2022-07-30T12:16:51;24.30;97.50
47148;DHT22;32900;47.498;8.738;2022-07-30T12:19:19;24.30;98.00
47148;DHT22;32900;47.498;8.738;2022-07-30T12:21:46;24.20;99.40
47148;DHT22;32900;47.498;8.738;2022-07-30T12:24:24;24.00;99.70
47148;DHT22;32900;47.498;8.738;2022-07-30T12:26:51;24.00;99.90
47148;DHT22;32900;47.498;8.738;2022-07-30T12:29:29;24.00;99.90
47148;DHT22;32900;47.498;8.738;2022-07-30T12:31:57;24.10;99.90
47148;DHT22;32900;47.498;8.738;2022-07-30T12:34:25;24.10;99.90
47148;DHT22;32900;47.498;8.738;2022-07-30T12:36:55;24.10;99.90
47148;DHT22;32900;47.498;8.738;2022-07-30T12:39:32;24.10;99.90
47148;DHT22;32900;47.498;8.738;2022-07-30T12:41:58;24.20;99.90
47148;DHT22;32900;47.498;8.738;2022-07-30T12:44:40;24.20;99.90
47148;DHT22;32900;47.498;8.738;2022-07-30T12:47:22;24.30;99.90
47148;DHT22;32900;47.498;8.738;2022-07-30T12:49:51;25.20;99.90
47148;DHT22;32900;47.498;8.738;2022-07-30T12:52:27;25.90;99.50
47148;DHT22;32900;47.498;8.738;2022-07-30T12:55:02;26.00;99.20
47148;DHT22;32900;47.498;8.738;2022-07-30T12:57:55;26.20;98.50
47148;DHT22;32900;47.498;8.738;2022-07-30T13:00:23;27.00;97.80
47148;DHT22;32900;47.498;8.738;2022-07-30T13:02:52;27.60;97.60
47148;DHT22;32900;47.498;8.738;2022-07-30T13:05:19;27.30;95.60
47148;DHT22;32900;47.498;8.738;2022-07-30T13:07:58;26.70;94.80
47148;DHT22;32900;47.498;8.738;2022-07-30T13:10:26;26.10;94.40
47148;DHT22;32900;47.498;8.738;2022-07-30T13:12:57;25.90;95.60
47148;DHT22;32900;47.498;8.738;2022-07-30T13:15:24;25.60;95.70
47148;DHT22;32900;47.498;8.738;2022-07-30T13:17:51;25.70;95.50
47148;DHT22;32900;47.498;8.738;2022-07-30T13:20:18;27.00;95.60
47148;DHT22;32900;47.498;8.738;2022-07-30T13:22:46;27.10;93.10
47148;DHT22;32900;47.498;8.738;2022-07-30T13:25:13;26.20;94.10
47148;DHT22;32900;47.498;8.738;2022-07-30T13:27:40;25.90;94.60
47148;DHT22;32900;47.498;8.738;2022-07-30T13:30:07;25.80;94.40
47148;DHT22;32900;47.498;8.738;2022-07-30T13:32:34;26.40;95.70
47148;DHT22;32900;47.498;8.738;2022-07-30T13:35:01;27.00;93.90
47148;DHT22;32900;47.498;8.738;2022-07-30T13:37:28;27.10;92.60
47148;DHT22;32900;47.498;8.738;2022-07-30T13:40:05;27.90;93.50
47148;DHT22;32900;47.498;8.738;2022-07-30T13:42:32;28.90;92.40
47148;DHT22;32900;47.498;8.738;2022-07-30T13:44:59;28.50;91.70
47148;DHT22;32900;47.498;8.738;2022-07-30T13:47:26;27.20;92.50
47148;DHT22;32900;47.498;8.738;2022-07-30T13:49:53;26.30;92.80
47148;DHT22;32900;47.498;8.738;2022-07-30T13:52:19;25.90;93.40
47148;DHT22;32900;47.498;8.738;2022-07-30T13:54:46;26.10;93.80
47148;DHT22;32900;47.498;8.738;2022-07-30T13:57:13;26.70;93.50
47148;DHT22;32900;47.498;8.738;2022-07-30T13:59:40;26.50;92.60
47148;DHT22;32900;47.498;8.738;2022-07-30T14:02:07;27.10;93.20
47148;DHT22;32900;47.498;8.738;2022-07-30T14:04:34;27.70;92.30
47148;DHT22;32900;47.498;8.738;2022-07-30T14:07:00;28.20;91.80
47148;DHT22;32900;47.498;8.738;2022-07-30T14:09:28;28.10;93.30
47148;DHT22;32900;47.498;8.738;2022-07-30T14:11:54;27.60;91.70
47148;DHT22;32900;47.498;8.738;2022-07-30T14:14:21;27.30;91.80
47148;DHT22;32900;47.498;8.738;2022-07-30T14:16:49;27.60;91.80
47148;DHT22;32900;47.498;8.738;2022-07-30T14:19:19;27.00;91.60
47148;DHT22;32900;47.498;8.738;2022-07-30T14:21:50;27.40;92.30
47148;DHT22;32900;47.498;8.738;2022-07-30T14:24:18;27.20;94.00
47148;DHT22;32900;47.498;8.738;2022-07-30T14:26:45;26.80;93.00
47148;DHT22;32900;47.498;8.738;2022-07-30T14:29:12;26.40;92.70
47148;DHT22;32900;47.498;8.738;2022-07-30T14:31:38;26.60;93.10
47148;DHT22;32900;47.498;8.738;2022-07-30T14:34:06;26.60;94.00
47148;DHT22;32900;47.498;8.738;2022-07-30T14:36:33;27.10;94.40
47148;DHT22;32900;47.498;8.738;2022-07-30T14:39:00;27.50;93.20
47148;DHT22;32900;47.498;8.738;2022-07-30T14:41:32;28.70;93.30
47148;DHT22;32900;47.498;8.738;2022-07-30T14:44:00;28.70;91.20
47148;DHT22;32900;47.498;8.738;2022-07-30T14:46:27;29.10;91.40
47148;DHT22;32900;47.498;8.738;2022-07-30T14:48:54;29.60;93.30
47148;DHT22;32900;47.498;8.738;2022-07-30T14:51:21;29.50;91.60
47148;DHT22;32900;47.498;8.738;2022-07-30T14:53:52;29.50;91.30
47148;DHT22;32900;47.498;8.738;2022-07-30T14:56:20;29.90;91.80
47148;DHT22;32900;47.498;8.738;2022-07-30T14:58:47;29.60;91.60
47148;DHT22;32900;47.498;8.738;2022-07-30T15:01:17;28.30;91.70
47148;DHT22;32900;47.498;8.738;2022-07-30T15:03:45;27.40;91.80
47148;DHT22;32900;47.498;8.738;2022-07-30T15:06:12;26.70;91.90
47148;DHT22;32900;47.498;8.738;2022-07-30T15:08:41;26.70;92.90
47148;DHT22;32900;47.498;8.738;2022-07-30T15:11:08;26.20;92.00
47148;DHT22;32900;47.498;8.738;2022-07-30T15:13:35;26.30;91.80
47148;DHT22;32900;47.498;8.738;2022-07-30T15:16:05;26.00;92.20
47148;DHT22;32900;47.498;8.738;2022-07-30T15:18:36;25.90;92.20
47148;DHT22;32900;47.498;8.738;2022-07-30T15:21:03;26.00;92.30
47148;DHT22;32900;47.498;8.738;2022-07-30T15:23:30;26.00;92.70
47148;DHT22;32900;47.498;8.738;2022-07-30T15:25:57;25.90;91.80
47148;DHT22;32900;47.498;8.738;2022-07-30T15:28:23;25.60;92.60
47148;DHT22;32900;47.498;8.738;2022-07-30T15:30:50;25.40;93.20
47148;DHT22;32900;47.498;8.738;2022-07-30T15:33:17;25.30;92.90
47148;DHT22;32900;47.498;8.738;2022-07-30T15:35:44;25.20;92.90
47148;DHT22;32900;47.498;8.738;2022-07-30T15:38:11;25.30;94.00
47148;DHT22;32900;47.498;8.738;2022-07-30T15:40:39;25.50;94.10
47148;DHT22;32900;47.498;8.738;2022-07-30T15:43:07;25.60;94.10
47148;DHT22;32900;47.498;8.738;2022-07-30T15:45:36;25.60;94.20
47148;DHT22;32900;47.498;8.738;2022-07-30T15:48:23;25.50;94.90
47148;DHT22;32900;47.498;8.738;2022-07-30T15:50:59;25.60;96.70
47148;DHT22;32900;47.498;8.738;2022-07-30T15:53:28;25.70;95.80
47148;DHT22;32900;47.498;8.738;2022-07-30T15:55:59;26.60;94.60
47148;DHT22;32900;47.498;8.738;2022-07-30T15:58:25;27.20;93.30
47148;DHT22;32900;47.498;8.738;2022-07-30T16:00:52;26.90;92.80
47148;DHT22;32900;47.498;8.738;2022-07-30T16:03:19;26.70;92.10
47148;DHT22;32900;47.498;8.738;2022-07-30T16:05:46;27.40;92.00
47148;DHT22;32900;47.498;8.738;2022-07-30T16:08:21;28.00;91.00
47148;DHT22;32900;47.498;8.738;2022-07-30T16:10:49;27.70;92.50
47148;DHT22;32900;47.498;8.738;2022-07-30T16:13:17;27.90;91.30
47148;DHT22;32900;47.498;8.738;2022-07-30T16:15:44;27.30;90.60
47148;DHT22;32900;47.498;8.738;2022-07-30T16:18:13;26.80;92.10
47148;DHT22;32900;47.498;8.738;2022-07-30T16:20:40;26.60;92.30
47148;DHT22;32900;47.498;8.738;2022-07-30T16:23:06;26.10;91.70
47148;DHT22;32900;47.498;8.738;2022-07-30T16:25:40;26.00;92.10
47148;DHT22;32900;47.498;8.738;2022-07-30T16:28:09;26.10;92.60
47148;DHT22;32900;47.498;8.738;2022-07-30T16:30:37;25.90;92.30
47148;DHT22;32900;47.498;8.738;2022-07-30T16:33:17;25.80;92.90
47148;DHT22;32900;47.498;8.738;2022-07-30T16:35:44;25.70;93.40
47148;DHT22;32900;47.498;8.738;2022-07-30T16:38:16;25.60;94.30
47148;DHT22;32900;47.498;8.738;2022-07-30T16:40:43;25.60;93.70
47148;DHT22;32900;47.498;8.738;2022-07-30T16:43:10;25.30;94.20
47148;DHT22;32900;47.498;8.738;2022-07-30T16:45:37;25.10;94.20
47148;DHT22;32900;47.498;8.738;2022-07-30T16:48:04;25.20;94.80
47148;DHT22;32900;47.498;8.738;2022-07-30T16:50:34;25.10;94.60
47148;DHT22;32900;47.498;8.738;2022-07-30T16:53:00;25.10;95.10
47148;DHT22;32900;47.498;8.738;2022-07-30T16:55:27;25.10;94.40
47148;DHT22;32900;47.498;8.738;2022-07-30T16:57:54;24.90;94.60
47148;DHT22;32900;47.498;8.738;2022-07-30T17:00:21;24.90;94.90
47148;DHT22;32900;47.498;8.738;2022-07-30T17:02:47;24.80;95.50
47148;DHT22;32900;47.498;8.738;2022-07-30T17:05:14;24.70;95.80
47148;DHT22;32900;47.498;8.738;2022-07-30T17:07:41;24.80;95.80
47148;DHT22;32900;47.498;8.738;2022-07-30T17:10:08;24.80;96.40
47148;DHT22;32900;47.498;8.738;2022-07-30T17:12:37;25.00;96.00
47148;DHT22;32900;47.498;8.738;2022-07-30T17:15:06;25.10;95.20
47148;DHT22;32900;47.498;8.738;2022-07-30T17:17:32;25.30;95.30
47148;DHT22;32900;47.498;8.738;2022-07-30T17:19:59;25.40;95.60
47148;DHT22;32900;47.498;8.738;2022-07-30T17:22:28;25.30;95.00
47148;DHT22;32900;47.498;8.738;2022-07-30T17:24:55;25.30;95.40
47148;DHT22;32900;47.498;8.738;2022-07-30T17:27:22;25.50;95.40
47148;DHT22;32900;47.498;8.738;2022-07-30T17:29:51;25.50;95.50
47148;DHT22;32900;47.498;8.738;2022-07-30T17:32:19;25.40;95.30
47148;DHT22;32900;47.498;8.738;2022-07-30T17:34:49;25.40;96.90
47148;DHT22;32900;47.498;8.738;2022-07-30T17:37:16;25.30;96.50
47148;DHT22;32900;47.498;8.738;2022-07-30T17:39:43;25.30;95.80
47148;DHT22;32900;47.498;8.738;2022-07-30T17:42:30;25.30;95.70
47148;DHT22;32900;47.498;8.738;2022-07-30T17:44:57;25.10;95.60
47148;DHT22;32900;47.498;8.738;2022-07-30T17:47:24;25.10;95.60
47148;DHT22;32900;47.498;8.738;2022-07-30T17:49:51;25.20;95.20
47148;DHT22;32900;47.498;8.738;2022-07-30T17:52:19;25.20;95.70
47148;DHT22;32900;47.498;8.738;2022-07-30T17:54:51;25.10;95.80